QFA683 YMML-YPAD
Flight info
| Callsign | QFA683 |
|---|---|
| Flight time | 0h 58m |
| Altitude | 34000 |
| Route | PEDNI H345 MAVTO |
| Aircraft | A306/H-SDE3FGHIRWY/LB1 |
Departure
| Time | 2026-05-01 10:11 |
|---|---|
| Airport | Melbourne Airport (YMML) |
Arrival
| Time | 2026-05-01 11:10 |
|---|---|
| Airport | Adelaide International Airport (YPAD) |
| Time | Latitude | Longitude | Altitude | Speed | Heading |
|---|---|---|---|---|---|
| 2026-05-01 09:50 | -37.66615 | 144.84970 | 408 ft | 0 kts | 222° |
| 2026-05-01 09:57 | -37.66610 | 144.84976 | 406 ft | 2 kts | 225° |
| 2026-05-01 09:57 | -37.66597 | 144.84995 | 408 ft | 3 kts | 242° |
| 2026-05-01 09:57 | -37.66591 | 144.85018 | 403 ft | 3 kts | 269° |
| 2026-05-01 09:58 | -37.66593 | 144.85041 | 406 ft | 3 kts | 301° |
| 2026-05-01 09:58 | -37.66606 | 144.85059 | 401 ft | 3 kts | 329° |
| 2026-05-01 09:58 | -37.66620 | 144.85067 | 406 ft | 2 kts | 353° |
| 2026-05-01 09:58 | -37.66622 | 144.85067 | 406 ft | 1 kts | 354° |
| 2026-05-01 10:03 | -37.66606 | 144.85065 | 406 ft | 4 kts | 354° |
| 2026-05-01 10:03 | -37.66566 | 144.85058 | 404 ft | 5 kts | 344° |
| 2026-05-01 10:03 | -37.66542 | 144.85037 | 411 ft | 4 kts | 315° |
| 2026-05-01 10:04 | -37.66535 | 144.85004 | 407 ft | 7 kts | 275° |
| 2026-05-01 10:04 | -37.66539 | 144.84922 | 412 ft | 12 kts | 262° |
| 2026-05-01 10:04 | -37.66577 | 144.84818 | 407 ft | 12 kts | 219° |
| 2026-05-01 10:04 | -37.66634 | 144.84745 | 405 ft | 9 kts | 249° |
| 2026-05-01 10:05 | -37.66653 | 144.84636 | 406 ft | 16 kts | 261° |
| 2026-05-01 10:05 | -37.66671 | 144.84476 | 404 ft | 19 kts | 262° |
| 2026-05-01 10:05 | -37.66688 | 144.84318 | 403 ft | 18 kts | 262° |
| 2026-05-01 10:05 | -37.66715 | 144.84201 | 398 ft | 9 kts | 217° |
| 2026-05-01 10:06 | -37.66753 | 144.84187 | 399 ft | 4 kts | 182° |
| 2026-05-01 10:06 | -37.66791 | 144.84192 | 395 ft | 8 kts | 172° |
| 2026-05-01 10:06 | -37.66871 | 144.84207 | 394 ft | 14 kts | 172° |
| 2026-05-01 10:06 | -37.66969 | 144.84227 | 393 ft | 15 kts | 172° |
| 2026-05-01 10:07 | -37.67075 | 144.84247 | 390 ft | 16 kts | 172° |
| 2026-05-01 10:07 | -37.67187 | 144.84267 | 388 ft | 17 kts | 172° |
| 2026-05-01 10:07 | -37.67304 | 144.84289 | 386 ft | 17 kts | 171° |
| 2026-05-01 10:07 | -37.67427 | 144.84312 | 383 ft | 18 kts | 172° |
| 2026-05-01 10:08 | -37.67690 | 144.84363 | 375 ft | 20 kts | 171° |
| 2026-05-01 10:08 | -37.67839 | 144.84390 | 373 ft | 23 kts | 171° |
| 2026-05-01 10:08 | -37.68000 | 144.84420 | 364 ft | 25 kts | 172° |
| 2026-05-01 10:09 | -37.68174 | 144.84450 | 359 ft | 26 kts | 172° |
| 2026-05-01 10:09 | -37.68340 | 144.84468 | 360 ft | 19 kts | 193° |
| 2026-05-01 10:09 | -37.68446 | 144.84400 | 356 ft | 17 kts | 209° |
| 2026-05-01 10:09 | -37.68530 | 144.84310 | 349 ft | 15 kts | 233° |
| 2026-05-01 10:10 | -37.68554 | 144.84211 | 352 ft | 12 kts | 264° |
| 2026-05-01 10:10 | -37.68514 | 144.84100 | 351 ft | 15 kts | 323° |
| 2026-05-01 10:10 | -37.68196 | 144.84025 | 365 ft | 74 kts | 351° |
| 2026-05-01 10:11 | -37.67475 | 144.83886 | 374 ft | 132 kts | 351° |
| 2026-05-01 10:11 | -37.66408 | 144.83679 | 481 ft | 173 kts | 351° |
| 2026-05-01 10:11 | -37.65603 | 144.83521 | 834 ft | 179 kts | 351° |
| 2026-05-01 10:11 | -37.64380 | 144.83293 | 1677 ft | 181 kts | 351° |
| 2026-05-01 10:12 | -37.63044 | 144.83052 | 2119 ft | 206 kts | 351° |
| 2026-05-01 10:12 | -37.61559 | 144.82784 | 2645 ft | 226 kts | 351° |
| 2026-05-01 10:12 | -37.58206 | 144.81882 | 3619 ft | 261 kts | 335° |
| 2026-05-01 10:13 | -37.56687 | 144.80633 | 4576 ft | 263 kts | 316° |
| 2026-05-01 10:13 | -37.55582 | 144.78793 | 5547 ft | 266 kts | 296° |
| 2026-05-01 10:13 | -37.54934 | 144.76601 | 6511 ft | 269 kts | 287° |
| 2026-05-01 10:14 | -37.53914 | 144.72026 | 8401 ft | 277 kts | 285° |
| 2026-05-01 10:14 | -37.53387 | 144.69671 | 9314 ft | 281 kts | 285° |
| 2026-05-01 10:14 | -37.52847 | 144.67281 | 10136 ft | 288 kts | 286° |
| 2026-05-01 10:14 | -37.52273 | 144.64766 | 10514 ft | 310 kts | 286° |
| 2026-05-01 10:15 | -37.51654 | 144.62065 | 10811 ft | 331 kts | 286° |
| 2026-05-01 10:15 | -37.50993 | 144.59196 | 11094 ft | 350 kts | 286° |
| 2026-05-01 10:15 | -37.50298 | 144.56182 | 11440 ft | 365 kts | 286° |
| 2026-05-01 10:15 | -37.49589 | 144.53115 | 11975 ft | 371 kts | 286° |
| 2026-05-01 10:16 | -37.48852 | 144.49932 | 12618 ft | 376 kts | 286° |
| 2026-05-01 10:16 | -37.48116 | 144.46757 | 13241 ft | 380 kts | 286° |
| 2026-05-01 10:16 | -37.46628 | 144.40351 | 14439 ft | 387 kts | 286° |
| 2026-05-01 10:17 | -37.45866 | 144.37077 | 15051 ft | 391 kts | 286° |
| 2026-05-01 10:17 | -37.44321 | 144.30452 | 16216 ft | 398 kts | 286° |
| 2026-05-01 10:17 | -37.43535 | 144.27092 | 16784 ft | 402 kts | 286° |
| 2026-05-01 10:18 | -37.41940 | 144.20284 | 17890 ft | 409 kts | 286° |
| 2026-05-01 10:18 | -37.41131 | 144.16836 | 18419 ft | 412 kts | 286° |
| 2026-05-01 10:18 | -37.40315 | 144.13367 | 18938 ft | 415 kts | 286° |
| 2026-05-01 10:19 | -37.39493 | 144.09875 | 19439 ft | 418 kts | 286° |
| 2026-05-01 10:19 | -37.38663 | 144.06355 | 19916 ft | 421 kts | 286° |
| 2026-05-01 10:19 | -37.37829 | 144.02824 | 20372 ft | 424 kts | 286° |
| 2026-05-01 10:20 | -37.36148 | 143.95722 | 21278 ft | 429 kts | 286° |
| 2026-05-01 10:20 | -37.35294 | 143.92121 | 21714 ft | 432 kts | 287° |
| 2026-05-01 10:20 | -37.34430 | 143.88486 | 22121 ft | 434 kts | 287° |
| 2026-05-01 10:20 | -37.33562 | 143.84836 | 22530 ft | 437 kts | 287° |
| 2026-05-01 10:21 | -37.32689 | 143.81172 | 22924 ft | 439 kts | 287° |
| 2026-05-01 10:21 | -37.30922 | 143.73777 | 23664 ft | 444 kts | 287° |
| 2026-05-01 10:21 | -37.30030 | 143.70051 | 24013 ft | 446 kts | 287° |
| 2026-05-01 10:22 | -37.28227 | 143.62536 | 24682 ft | 451 kts | 287° |
| 2026-05-01 10:22 | -37.26403 | 143.54958 | 25310 ft | 455 kts | 287° |
| 2026-05-01 10:23 | -37.25483 | 143.51144 | 25609 ft | 457 kts | 287° |
| 2026-05-01 10:23 | -37.23636 | 143.43510 | 26189 ft | 461 kts | 287° |
| 2026-05-01 10:23 | -37.22699 | 143.39645 | 26447 ft | 464 kts | 287° |
| 2026-05-01 10:24 | -37.20813 | 143.31883 | 26978 ft | 467 kts | 287° |
| 2026-05-01 10:24 | -37.18816 | 143.24092 | 27459 ft | 471 kts | 289° |
| 2026-05-01 10:25 | -37.16482 | 143.16394 | 27938 ft | 474 kts | 291° |
| 2026-05-01 10:25 | -37.14062 | 143.08684 | 28495 ft | 474 kts | 291° |
| 2026-05-01 10:26 | -37.12862 | 143.04834 | 28817 ft | 473 kts | 291° |
| 2026-05-01 10:26 | -37.11674 | 143.00997 | 29127 ft | 473 kts | 291° |
| 2026-05-01 10:26 | -37.09312 | 142.93327 | 29734 ft | 471 kts | 291° |
| 2026-05-01 10:27 | -37.06957 | 142.85674 | 30340 ft | 470 kts | 291° |
| 2026-05-01 10:27 | -37.04620 | 142.78099 | 30935 ft | 469 kts | 291° |
| 2026-05-01 10:28 | -37.03445 | 142.74300 | 31229 ft | 468 kts | 291° |
| 2026-05-01 10:28 | -37.01093 | 142.66712 | 31815 ft | 467 kts | 291° |
| 2026-05-01 10:28 | -36.99916 | 142.62925 | 32122 ft | 466 kts | 291° |
| 2026-05-01 10:29 | -36.97562 | 142.55364 | 32668 ft | 465 kts | 291° |
| 2026-05-01 10:29 | -36.96387 | 142.51600 | 32948 ft | 464 kts | 291° |
| 2026-05-01 10:30 | -36.94037 | 142.44079 | 33509 ft | 463 kts | 291° |
| 2026-05-01 10:30 | -36.91687 | 142.36581 | 33747 ft | 458 kts | 291° |
| 2026-05-01 10:31 | -36.89391 | 142.29276 | 33752 ft | 447 kts | 291° |
| 2026-05-01 10:31 | -36.87130 | 142.22098 | 33751 ft | 446 kts | 291° |
| 2026-05-01 10:32 | -36.83711 | 142.11277 | 33757 ft | 446 kts | 291° |
| 2026-05-01 10:33 | -36.79134 | 141.96854 | 33756 ft | 446 kts | 291° |
| 2026-05-01 10:34 | -36.75692 | 141.86057 | 33756 ft | 446 kts | 291° |
| 2026-05-01 10:34 | -36.73393 | 141.78867 | 33756 ft | 447 kts | 291° |
| 2026-05-01 10:35 | -36.69934 | 141.68083 | 33756 ft | 447 kts | 291° |
| 2026-05-01 10:35 | -36.67638 | 141.60945 | 33751 ft | 447 kts | 291° |
| 2026-05-01 10:36 | -36.64165 | 141.50183 | 33751 ft | 447 kts | 292° |
| 2026-05-01 10:37 | -36.61844 | 141.43014 | 33756 ft | 446 kts | 292° |
| 2026-05-01 10:37 | -36.58354 | 141.32264 | 33757 ft | 446 kts | 292° |
| 2026-05-01 10:38 | -36.56020 | 141.25099 | 33759 ft | 446 kts | 292° |
| 2026-05-01 10:38 | -36.53685 | 141.17946 | 33751 ft | 446 kts | 292° |
| 2026-05-01 10:39 | -36.51344 | 141.10793 | 33752 ft | 446 kts | 292° |
| 2026-05-01 10:39 | -36.48998 | 141.03644 | 33749 ft | 446 kts | 292° |
| 2026-05-01 10:40 | -36.46649 | 140.96501 | 33757 ft | 446 kts | 292° |
| 2026-05-01 10:40 | -36.44314 | 140.89416 | 33749 ft | 446 kts | 292° |
| 2026-05-01 10:41 | -36.41959 | 140.82290 | 33757 ft | 446 kts | 292° |
| 2026-05-01 10:42 | -36.37797 | 140.71992 | 33758 ft | 446 kts | 305° |
| 2026-05-01 10:42 | -36.34072 | 140.65834 | 33755 ft | 446 kts | 308° |
| 2026-05-01 10:43 | -36.30220 | 140.59792 | 33764 ft | 446 kts | 308° |
| 2026-05-01 10:43 | -36.26359 | 140.53769 | 33759 ft | 446 kts | 308° |
| 2026-05-01 10:44 | -36.22514 | 140.47741 | 33750 ft | 446 kts | 308° |
| 2026-05-01 10:44 | -36.18667 | 140.41702 | 33754 ft | 446 kts | 308° |
| 2026-05-01 10:45 | -36.14825 | 140.35675 | 33754 ft | 446 kts | 308° |
| 2026-05-01 10:45 | -36.10997 | 140.29683 | 33760 ft | 447 kts | 308° |
| 2026-05-01 10:46 | -36.07496 | 140.23249 | 33753 ft | 456 kts | 296° |
| 2026-05-01 10:46 | -36.04849 | 140.16123 | 33754 ft | 457 kts | 294° |
| 2026-05-01 10:47 | -36.02257 | 140.08952 | 33752 ft | 457 kts | 294° |
| 2026-05-01 10:47 | -35.99663 | 140.01772 | 33757 ft | 456 kts | 294° |
| 2026-05-01 10:48 | -35.97096 | 139.94680 | 33750 ft | 447 kts | 294° |
| 2026-05-01 10:48 | -35.95841 | 139.91216 | 33548 ft | 449 kts | 294° |
| 2026-05-01 10:48 | -35.94559 | 139.87683 | 32763 ft | 452 kts | 294° |
| 2026-05-01 10:48 | -35.93264 | 139.84118 | 31794 ft | 456 kts | 294° |
| 2026-05-01 10:49 | -35.91962 | 139.80538 | 30967 ft | 457 kts | 294° |
| 2026-05-01 10:49 | -35.90666 | 139.76978 | 30322 ft | 452 kts | 294° |
| 2026-05-01 10:49 | -35.89383 | 139.73457 | 29643 ft | 448 kts | 294° |
| 2026-05-01 10:49 | -35.88112 | 139.69974 | 29029 ft | 443 kts | 294° |
| 2026-05-01 10:50 | -35.86848 | 139.66514 | 28416 ft | 438 kts | 294° |
| 2026-05-01 10:50 | -35.85601 | 139.63103 | 27786 ft | 434 kts | 294° |
| 2026-05-01 10:50 | -35.84359 | 139.59711 | 27182 ft | 430 kts | 294° |
| 2026-05-01 10:50 | -35.83133 | 139.56364 | 26507 ft | 428 kts | 294° |
| 2026-05-01 10:51 | -35.81918 | 139.53053 | 25950 ft | 422 kts | 294° |
| 2026-05-01 10:51 | -35.80713 | 139.49770 | 25355 ft | 418 kts | 294° |
| 2026-05-01 10:51 | -35.79518 | 139.46522 | 24746 ft | 415 kts | 294° |
| 2026-05-01 10:51 | -35.78348 | 139.43342 | 24183 ft | 410 kts | 294° |
| 2026-05-01 10:52 | -35.77176 | 139.40159 | 23619 ft | 406 kts | 294° |
| 2026-05-01 10:52 | -35.76013 | 139.37005 | 23062 ft | 403 kts | 294° |
| 2026-05-01 10:52 | -35.74858 | 139.33877 | 22507 ft | 399 kts | 294° |
| 2026-05-01 10:52 | -35.73713 | 139.30776 | 21940 ft | 396 kts | 294° |
| 2026-05-01 10:53 | -35.72577 | 139.27705 | 21378 ft | 393 kts | 294° |
| 2026-05-01 10:53 | -35.71447 | 139.24651 | 20820 ft | 390 kts | 294° |
| 2026-05-01 10:53 | -35.70326 | 139.21626 | 20264 ft | 387 kts | 294° |
| 2026-05-01 10:53 | -35.69212 | 139.18623 | 19714 ft | 384 kts | 294° |
| 2026-05-01 10:54 | -35.68110 | 139.15654 | 19160 ft | 381 kts | 294° |
| 2026-05-01 10:54 | -35.67012 | 139.12700 | 18598 ft | 378 kts | 294° |
| 2026-05-01 10:54 | -35.65921 | 139.09768 | 18063 ft | 374 kts | 295° |
| 2026-05-01 10:54 | -35.64644 | 139.07007 | 17544 ft | 370 kts | 307° |
| 2026-05-01 10:55 | -35.62953 | 139.04646 | 17029 ft | 366 kts | 313° |
| 2026-05-01 10:55 | -35.61181 | 139.02412 | 16485 ft | 363 kts | 314° |
| 2026-05-01 10:55 | -35.59415 | 139.00207 | 15957 ft | 360 kts | 314° |
| 2026-05-01 10:55 | -35.57668 | 138.98021 | 15436 ft | 357 kts | 314° |
| 2026-05-01 10:56 | -35.56529 | 138.96592 | 15215 ft | 351 kts | 314° |
| 2026-05-01 10:56 | -35.54842 | 138.94473 | 14820 ft | 344 kts | 314° |
| 2026-05-01 10:56 | -35.53178 | 138.92381 | 14308 ft | 342 kts | 314° |
| 2026-05-01 10:56 | -35.51523 | 138.90300 | 13779 ft | 339 kts | 314° |
| 2026-05-01 10:57 | -35.49881 | 138.88234 | 13288 ft | 337 kts | 314° |
| 2026-05-01 10:57 | -35.47724 | 138.85524 | 12568 ft | 335 kts | 314° |
| 2026-05-01 10:57 | -35.46627 | 138.84146 | 12246 ft | 332 kts | 314° |
| 2026-05-01 10:57 | -35.45026 | 138.82135 | 11791 ft | 328 kts | 314° |
| 2026-05-01 10:58 | -35.43438 | 138.80143 | 11312 ft | 325 kts | 314° |
| 2026-05-01 10:58 | -35.41868 | 138.78174 | 10834 ft | 321 kts | 314° |
| 2026-05-01 10:58 | -35.40347 | 138.76267 | 10652 ft | 309 kts | 314° |
| 2026-05-01 10:58 | -35.38862 | 138.74408 | 10586 ft | 294 kts | 314° |
| 2026-05-01 10:59 | -35.37459 | 138.72651 | 10167 ft | 293 kts | 314° |
| 2026-05-01 10:59 | -35.36037 | 138.70871 | 9763 ft | 291 kts | 314° |
| 2026-05-01 10:59 | -35.34621 | 138.69100 | 9342 ft | 290 kts | 314° |
| 2026-05-01 10:59 | -35.33216 | 138.67343 | 8870 ft | 286 kts | 314° |
| 2026-05-01 11:00 | -35.31842 | 138.65627 | 8397 ft | 278 kts | 314° |
| 2026-05-01 11:00 | -35.30510 | 138.63963 | 8000 ft | 270 kts | 314° |
| 2026-05-01 11:00 | -35.29212 | 138.62344 | 7606 ft | 263 kts | 314° |
| 2026-05-01 11:00 | -35.27939 | 138.60755 | 7213 ft | 258 kts | 314° |
| 2026-05-01 11:01 | -35.26693 | 138.59200 | 6820 ft | 255 kts | 314° |
| 2026-05-01 11:01 | -35.25448 | 138.57649 | 6464 ft | 251 kts | 314° |
| 2026-05-01 11:01 | -35.24258 | 138.56166 | 6430 ft | 237 kts | 314° |
| 2026-05-01 11:01 | -35.23135 | 138.54769 | 6333 ft | 228 kts | 314° |
| 2026-05-01 11:02 | -35.22014 | 138.53372 | 5928 ft | 230 kts | 314° |
| 2026-05-01 11:02 | -35.20895 | 138.51980 | 5581 ft | 229 kts | 314° |
| 2026-05-01 11:02 | -35.19781 | 138.50594 | 5267 ft | 228 kts | 314° |
| 2026-05-01 11:02 | -35.18672 | 138.49215 | 4942 ft | 227 kts | 314° |
| 2026-05-01 11:03 | -35.17568 | 138.47842 | 4615 ft | 226 kts | 314° |
| 2026-05-01 11:03 | -35.16484 | 138.46494 | 4320 ft | 224 kts | 314° |
| 2026-05-01 11:03 | -35.15430 | 138.45186 | 4231 ft | 209 kts | 314° |
| 2026-05-01 11:03 | -35.14417 | 138.43973 | 4051 ft | 200 kts | 322° |
| 2026-05-01 11:04 | -35.13221 | 138.43273 | 3995 ft | 183 kts | 341° |
| 2026-05-01 11:04 | -35.12068 | 138.42859 | 3988 ft | 169 kts | 343° |
| 2026-05-01 11:04 | -35.10907 | 138.42459 | 3889 ft | 176 kts | 343° |
| 2026-05-01 11:04 | -35.09732 | 138.42043 | 3609 ft | 174 kts | 343° |
| 2026-05-01 11:05 | -35.08609 | 138.41527 | 3366 ft | 173 kts | 329° |
| 2026-05-01 11:05 | -35.07762 | 138.40505 | 3100 ft | 173 kts | 303° |
| 2026-05-01 11:05 | -35.07020 | 138.39315 | 2999 ft | 178 kts | 316° |
| 2026-05-01 11:05 | -35.05948 | 138.38646 | 2691 ft | 175 kts | 350° |
| 2026-05-01 11:06 | -35.04754 | 138.38914 | 2190 ft | 178 kts | 28° |
| 2026-05-01 11:06 | -35.03840 | 138.39917 | 1735 ft | 178 kts | 49° |
| 2026-05-01 11:06 | -35.03048 | 138.41103 | 1699 ft | 182 kts | 51° |
| 2026-05-01 11:07 | -35.01473 | 138.43486 | 1677 ft | 172 kts | 50° |
| 2026-05-01 11:07 | -35.00766 | 138.44537 | 1486 ft | 150 kts | 50° |
| 2026-05-01 11:07 | -35.00135 | 138.45467 | 1288 ft | 137 kts | 50° |
| 2026-05-01 11:07 | -34.99530 | 138.46353 | 1140 ft | 135 kts | 50° |
| 2026-05-01 11:08 | -34.98934 | 138.47224 | 986 ft | 136 kts | 50° |
| 2026-05-01 11:08 | -34.98326 | 138.48110 | 769 ft | 136 kts | 49° |
| 2026-05-01 11:08 | -34.97113 | 138.49863 | 463 ft | 135 kts | 50° |
| 2026-05-01 11:09 | -34.96515 | 138.50748 | 266 ft | 135 kts | 50° |
| 2026-05-01 11:09 | -34.95917 | 138.51624 | 86 ft | 133 kts | 50° |
| 2026-05-01 11:09 | -34.95330 | 138.52465 | 26 ft | 120 kts | 51° |
| 2026-05-01 11:10 | -34.94693 | 138.53401 | 29 ft | 42 kts | 50° |
| 2026-05-01 11:10 | -34.94594 | 138.53516 | 27 ft | 4 kts | 353° |
| 2026-05-01 11:10 | -34.94572 | 138.53503 | 27 ft | 6 kts | 331° |
| 2026-05-01 11:10 | -34.94533 | 138.53451 | 27 ft | 9 kts | 309° |
| 2026-05-01 11:11 | -34.94521 | 138.53433 | 28 ft | 0 kts | 310° |
| 2026-05-01 11:11 | -34.94508 | 138.53414 | 28 ft | 7 kts | 310° |
| 2026-05-01 11:11 | -34.94490 | 138.53405 | 28 ft | 3 kts | 355° |
| 2026-05-01 11:12 | -34.94451 | 138.53425 | 29 ft | 6 kts | 41° |
| 2026-05-01 11:12 | -34.94427 | 138.53455 | 28 ft | 4 kts | 49° |
| 2026-05-01 11:12 | -34.94406 | 138.53484 | 28 ft | 5 kts | 49° |
| 2026-05-01 11:12 | -34.94380 | 138.53521 | 28 ft | 8 kts | 49° |
| 2026-05-01 11:13 | -34.94344 | 138.53571 | 29 ft | 7 kts | 49° |
| 2026-05-01 11:13 | -34.94333 | 138.53587 | 27 ft | 0 kts | 49° |
| 2026-05-01 11:13 | -34.94321 | 138.53604 | 29 ft | 6 kts | 49° |
| 2026-05-01 11:14 | -34.94297 | 138.53640 | 29 ft | 7 kts | 51° |
| 2026-05-01 11:14 | -34.94269 | 138.53681 | 30 ft | 7 kts | 51° |
| 2026-05-01 11:14 | -34.94234 | 138.53734 | 30 ft | 8 kts | 51° |
| 2026-05-01 11:14 | -34.94200 | 138.53785 | 30 ft | 8 kts | 51° |
| 2026-05-01 11:15 | -34.94165 | 138.53838 | 30 ft | 8 kts | 51° |
| 2026-05-01 11:15 | -34.94128 | 138.53892 | 31 ft | 8 kts | 51° |
| 2026-05-01 11:15 | -34.94102 | 138.53909 | 31 ft | 2 kts | 349° |
| 2026-05-01 11:15 | -34.94068 | 138.53893 | 31 ft | 10 kts | 339° |
| 2026-05-01 11:16 | -34.94018 | 138.53898 | 31 ft | 5 kts | 30° |
| 2026-05-01 11:16 | -34.93982 | 138.53939 | 31 ft | 9 kts | 47° |
| 2026-05-01 11:16 | -34.93955 | 138.53957 | 32 ft | 2 kts | 6° |
| 2026-05-01 11:16 | -34.93937 | 138.53948 | 32 ft | 3 kts | 323° |
| 2026-05-01 11:17 | -34.93907 | 138.53917 | 33 ft | 9 kts | 320° |
| 2026-05-01 11:17 | -34.93885 | 138.53895 | 33 ft | 1 kts | 321° |